Hauptseite
METAR-TAF:

METAR-TAF

Flughäfen :

Flughafen Grenchen

Grenchen, Schweiz

Breite: 47-10-53N, Länge: 007-24-59E, Höhe: 430 m

Beobachtung

Neuester Wetterbericht von vor 41 Minuten, um 18:20 UTC
Wind 2 kt aus West/Südwest
Temperatur 11°C
Luftfeuchtigkeit 87%
Luftdruck 1024 hPa
Sichtweite 10 km oder mehr

METAR: LSZG 191820Z AUTO 24002KT 9999 NCD 11/09 Q1024

Zeit: 21:01 (19:01 UTC)

Prognose

Neuester Wetterbericht von vor 4 Stunden und 36 Minuten, um 14:25 UTC
Gültige Prognose vom 19 um 15 UTC bis 19 um 24 UTC
Wind 4 kt aus Süd/Südwest
Sichtweite 10 km oder mehr
keine Wolken unter 1500 m und keine Kumulonimbus oder Gewitterwolken
Übergehend zu
vom 19 um 18 UTC bis 19 um 21 UTC
Sichtweite: 6000 m

TAF: LSZG 191425Z 1915/1924 20004KT CAVOK BECMG 1918/1921 6000 NSC

Wetterbeobachtungen und Prognosen von mehr als 4000 Flughäfen (METAR und TAF Bericht).

Die verfügbaren Stationen werden durch gelbe und rote Markierungen auf der Karte dargestellt.

Führen Sie die Maus auf sie, um den Namen der Station zu sehen.

Darauf klicken, um die Beobachtung von Wetterbeobachtungen und Prognosen zu sehen.

Um die Karte zu ändern : klicken Sie auf den grünen Tasten mit einem schwarzen Kreuz Zum Vergrößern, auf den grünen Button mit einem Gedankenstrich zu verkleinern, oder auf die grünen Pfeile für benachbarte Karten.


METAR-TAF: